Terminal Aerodrome Forecast
Issued by NWS

Home | Current Version | Previous Version | Text Only | Print | Product List | Glossary On
Versions: 1 2 3 4 5 6 7 8 9 10 11 12 13
000
FTUS46 KSGX 300500
TAFCRQ
TAF
KCRQ 300520Z 3006/3106 VRB03KT P6SM SCT020 OVC050
     FM301200 14005KT P6SM VCSH OVC025
     FM301900 23007KT 6SM BR VCSH BKN020
     FM310200 VRB05KT 4SM -SHRA BKN015=

USA.gov is the U.S. government's official web portal to all federal, state and local government web resources and services.